Station: Hawker

  Atmospheric Gas Attenuation - ITU Rec 676-11   --------------- db/100km ---------------
Date Time Temp RH % AH g/m3 Dew Point Wind Direction Speed kph Gust kph Barometer mB Rainfall Since 9am 24GHz 47GHz 76GHz 122GHz 134GHz 241GHz
13 09:00 8 95 7.86 7.2 15 1025 0.3 18.3 26.8 40.2 105.3 96.6 331.3
11 09:00 8 93 7.69 6.9 13 1016.5 0 17.9 26.2 39.1 102.5 93.6 320.7
10 09:00 9.2 69 6.16 3.8 0 1019.2 0 14.6 23.5 32.5 84.8 72.1 245.5
09 09:00 7.5 79 6.33 4.1 2 1025.5 0 15.0 24.4 34.1 89.0 76.3 260.0
08 09:00 6.5 85 6.38 4.2 0 1025.2 0 15.1 24.8 34.7 90.7 77.9 265.7
07 09:00 7.8 81 6.61 4.7 2 1028.9 0 15.6 25.0 35.3 92.0 80.0 272.9
06 09:00 8.1 85 7.08 5.7 11 1030.3 0 16.6 25.7 37.1 97.0 86.1 294.5
05 09:00 10.3 89 8.53 8.5 11 1029.4 0 19.6 27.5 42.1 110.2 103.4 355.2
04 09:00 7.3 82 6.48 4.4 7 1030.1 0 15.3 24.9 35.0 91.3 78.8 268.8
03 09:00 10 88 8.27 8.2 0 1025.5 0 19.1 26.9 40.9 107.3 99.8 342.8
02 09:00 9.9 87 8.13 7.9 0 1017.7 0 18.8 26.4 40.0 105.0 97.4 334.3
01 09:00 16 45 6.13 4.2 7 1013.2 0 14.3 21.6 29.5 77.1 65.4 223.2
30 09:00 10.8 55 5.44 2.3 7 1017 0 13.0 21.9 29.1 75.7 61.6 208.9
29 09:00 7.4 71 5.65 2.5 6 1022.2 0 13.5 23.3 31.3 81.6 67.3 228.4
28 09:00 7.9 66 5.42 2 4 1025.9 0 13.0 22.9 30.4 79.0 64.1 217.3
27 09:00 8.7 75 6.49 4.5 2 1025.8 0 15.3 24.4 34.3 89.4 77.3 263.6
26 09:00 9.1 84 7.46 6.6 0 1025 0 17.4 25.8 38.0 99.4 89.8 307.4
25 09:00 7.4 78 6.21 3.8 0 1021.7 0 14.7 24.1 33.5 87.5 74.6 254.0
23 09:00 7.8 91 7.43 6.5 0 1020.7 0.2 17.4 26.0 38.3 100.3 90.5 310.0
22 09:00 9.6 97 8.89 9.2 6 1018.6 0.1 20.4 27.9 43.5 114.1 108.5 373.1
21 09:00 9.4 93 8.41 8.4 7 1014.8 0.6 19.4 27.0 41.3 108.5 101.7 349.3
20 09:00 9.9 82 7.66 7 4 1018.5 0 17.8 25.7 38.1 99.9 91.0 312.1
19 09:00 16.6 46 6.5 5.1 7 1019.8 0 15.0 22.2 30.9 80.6 69.7 238.0
18 09:00 11.6 66 6.86 5.5 4 1027.9 0 16.0 24.3 34.6 90.2 79.3 271.1
17 09:00 10.9 78 7.76 7.2 0 1030.2 0 17.9 26.0 38.6 100.9 92.1 315.8
16 09:00 9.7 73 6.73 5.2 0 1026.4 0 15.8 24.5 34.8 90.9 79.4 271.4
15 09:00 9.8 79 7.33 6.4 0 1024.4 0 17.0 25.4 37.1 97.0 87.2 298.4
14 09:00 7.9 88 7.23 6 0 1020.8 9 16.9 25.6 37.4 97.9 87.7 300.1
13 09:00 16.9 35 5.03 1.4 15 1009.9 0 11.9 19.7 25.4 65.9 52.1 176.6
12 09:00 11.3 70 7.14 6.1 2 1019.4 0 16.6 24.5 35.4 92.7 82.6 282.9
11 09:00 9.6 70 6.41 4.5 0 1023.1 0 15.1 23.9 33.4 87.3 75.2 256.3
10 09:00 8.2 74 6.2 3.9 0 1025.1 0 14.7 24.0 33.3 86.8 73.9 251.7
09 09:00 8.4 74 6.28 4.1 0 1027.7 0 14.9 24.2 33.6 87.7 74.9 255.3
08 09:00 7.6 78 6.29 4 6 1028.2 0 14.9 24.5 34.0 88.7 75.8 258.4
07 09:00 8.5 80 6.83 5.2 9 1023.2 0 16.0 24.9 35.6 93.0 81.8 279.5
06 09:00 7 74 5.74 2.8 0 1023.5 0 13.8 23.6 31.9 83.1 68.9 233.9
05 09:00 8.4 78 6.62 4.9 4 1028.2 0 15.6 24.8 35.0 91.4 79.4 271.1
04 09:00 9.2 78 6.97 5.5 0 1030.6 0 16.3 25.2 36.2 94.5 83.4 285.3
03 09:00 11 92 9.21 9.8 7 1029.9 0.6 21.0 28.4 44.6 117.0 112.0 385.5
02 09:00 8.2 90 7.54 6.7 0 1025.5 0 17.6 26.3 38.8 101.5 92.0 315.0
01 09:00 9.7 74 6.82 5.4 9 1018.1 0.2 16.0 24.4 34.8 91.0 80.1 273.6
31 09:00 10.5 93 9.02 9.5 0 1015.7 0.8 20.7 27.7 43.4 114.0 108.8 374.3
30 09:00 15.4 54 7.09 6.1 9 1017.7 0 16.3 23.3 33.4 87.4 77.7 266.2
29 09:00 11.8 68 7.16 6.2 0 1024.4 0 16.6 24.6 35.5 92.8 82.7 283.2
28 09:00 10.6 79 7.71 7.1 0 1022.2 0 17.8 25.7 38.2 99.9 91.2 312.6
27 09:00 13.1 55 6.28 4.3 0 1019.5 0 14.7 22.7 31.4 81.9 70.1 239.0
26 09:00 10 70 6.58 4.8 0 1019.6 0 15.4 24.0 33.8 88.3 76.7 262.0
25 09:00 7.7 75 6.08 3.6 2 1022.5 0 14.5 23.9 32.9 85.8 72.6 247.2
24 09:00 10.5 76 7.37 6.5 9 1022.4 0.2 17.1 25.2 36.8 96.4 86.8 297.2
23 09:00 11.5 93 9.61 10.4 11 1019.9 2 21.9 28.6 45.6 119.7 116.0 399.8
22 09:00 8.8 74 6.44 4.4 0 1022.9 0 15.2 24.2 33.9 88.5 76.3 260.3
21 09:00 8.5 78 6.66 5 6 1021.4 0.6 15.7 24.6 34.8 91.0 79.4 271.1
20 09:00 8.9 76 6.66 5 4 1019.3 0 15.6 24.4 34.6 90.4 78.8 269.3
19 09:00 15.1 53 6.84 5.7 0 1018.1 0 15.8 23.0 32.6 85.3 75.0 256.5
18 09:00 15.4 54 7.09 6.3 0 1023.5 0 16.3 23.5 33.7 87.9 78.1 267.5
17 09:00 13.2 55 6.32 4.4 9 1026.4 0 14.8 23.0 31.8 82.8 70.9 241.8
15 09:00 9.7 73 6.73 5.2 0 1027.4 0 15.8 24.6 34.9 91.0 79.5 271.6
14 09:00 11.1 73 7.35 6.5 0 1026.9 0 17.0 25.2 36.7 95.9 86.2 295.1
13 09:00 12.3 87 9.45 10.2 7 1024 0 21.5 28.2 44.6 117.1 112.9 389.1
11 09:00 11.7 81 8.47 8.5 2 1027.4 0 19.4 26.8 41.0 107.4 100.5 345.5
10 09:00 9.6 91 8.34 8.2 0 1026.2 0 19.2 27.2 41.5 108.7 101.4 348.2
09 09:00 11.9 85 9 9.4 13 1015.6 0 20.5 27.2 42.5 111.7 106.5 366.6
08 09:00 13.2 85 9.76 10.8 0 1014.8 0 22.1 28.1 45.0 118.2 115.1 396.8
07 09:00 21.5 50 9.43 10.8 19 1012.5 0 21.0 25.0 39.2 102.9 99.2 342.2
06 09:00 15.5 63 8.33 8.5 6 1021.8 0 18.9 25.3 38.3 100.3 93.5 321.4
05 09:00 12.4 74 8.09 8 2 1026.2 0 18.6 26.0 39.0 102.1 94.4 324.2
04 09:00 11 86 8.61 8.8 0 1026.5 0 19.7 27.3 41.9 109.8 103.3 355.1
03 09:00 11.6 86 8.94 9.3 4 1024.5 0.1 20.4 27.6 42.9 112.4 106.9 367.7
02 09:00 13.4 89 10.35 11.6 9 1017.6 0.8 23.4 29.1 47.5 125.0 123.3 425.6
01 09:00 9.6 93 8.52 8.6 9 1018.7 0 19.6 27.2 41.9 109.9 103.3 354.9
30 09:00 9.1 92 8.17 7.9 11 1014.8 7 18.9 26.6 40.5 106.2 98.7 338.9
29 09:00 12 100 10.66 12 1008.1 24.1 29.8 49.3 129.8 129.2 445.8
28 09:00 17.4 76 11.26 13.2 2 1013.3 0 25.1 29.2 48.7 128.3 129.0 446.0
27 09:00 16.2 79 10.89 12.5 4 1021.1 0 24.3 29.3 48.3 127.0 126.7 437.6
26 09:00 17.5 89 13.27 15.7 6 1017.1 4 29.4 32.8 57.6 151.8 157.9 546.7
25 09:00 21.4 62 11.62 13.9 0 1016.1 0 25.6 28.6 47.9 126.1 127.5 441.2
24 09:00 16.4 91 12.7 15 4 1018.9 1 28.2 32.3 55.9 147.4 152.0 525.9
23 09:00 20.5 53 9.43 10.6 0 1016.6 0 21.0 25.4 39.8 104.6 100.8 347.6
22 09:00 18.5 58 9.18 10.2 0 1020.4 0 20.6 25.7 40.0 105.1 100.5 346.4
21 09:00 16.5 75 10.53 12 2 1017.3 0 23.6 28.4 46.4 122.0 120.9 417.4
20 09:00 19.5 72 12.08 14.4 7 1011.7 0 26.7 29.8 50.7 133.7 136.5 472.4
19 09:00 15.1 63 8.13 8.1 0 1013.4 0 18.5 24.8 37.3 97.9 90.7 311.8
18 09:00 15.3 68 8.88 9.4 0 1016.8 0 20.1 26.0 40.3 105.8 100.5 345.9
17 09:00 15.1 71 9.16 10 11 1018.9 0 20.7 26.6 41.6 109.3 104.6 360.3
16 09:00 22.5 50 9.99 11.8 11 1012.7 0 22.1 25.6 40.8 107.2 104.8 361.9
15 09:00 23.9 34 7.36 7.1 4 1017 0 16.5 21.6 31.0 81.1 72.8 250.1
13 09:00 16.4 44 6.14 4.3 0 1018 0 14.3 21.6 29.6 77.2 65.5 223.4
12 09:00 13.5 61 7.14 6.3 9 1018.9 0 16.5 23.9 34.5 90.1 80.3 275.1
11 09:00 18.9 72 11.66 13.7 15 1014.3 0 25.8 29.4 49.5 130.4 132.1 456.8
10 09:00 17.1 51 7.42 7.1 0 1018 0 16.9 23.3 33.9 88.8 80.1 274.7
09 09:00 16.1 56 7.68 7.4 0 1021.4 0 17.5 24.1 35.5 92.8 84.5 290.2
08 09:00 17.8 47 7.13 6.3 4 1020.5 0 16.3 22.8 32.7 85.5 76.1 260.7
07 09:00 17.9 55 8.4 8.8 0 1020 0 19.0 24.7 37.3 97.8 91.4 314.4
06 09:00 16.4 68 9.49 10.5 0 1020 0 21.3 26.8 42.3 111.2 107.3 369.9
05 09:00 14.6 64 8.01 7.9 7 1017 0 18.3 24.9 37.2 97.6 90.1 309.3
04 09:00 12.7 85 9.46 10.2 11 1010.2 1 21.5 27.5 43.8 115.1 111.2 383.3
03 09:00 20.8 96 17.38 20.2 0 1002.4 0 38.0 38.5 73.0 193.0 210.2 729.6
02 09:00 17.7 97 14.63 17.2 0 1010.2 0 32.3 34.9 63.2 167.0 176.9 613.1
01 09:00 18.9 78 12.64 15 0 1010.6 0.8 27.9 30.9 53.5 141.0 145.3 503.0
31 09:00 17.1 62 9.02 9.8 0 1014.6 0 20.3 25.7 39.9 104.7 99.8 343.7

Last Refresh: 13-Jul-2020 09:19:41

Most of the information presented on this site is sourced from the Bureau of Meteorology.  Copyright in all material sourced from the Bureau of Meteorology resides with the Commonwealth of Australia.